Main page
METAR-TAF:

Airports :

Warsaw, Poland

Warsaw Chopin Airport

latitude: 52-10N, longitude: 020-58E, elevation: 106 m

Current weather observation

The report was made 16 minutes ago, at 03:30 UTC
Wind 6 kt from the East/Southeast
Temperature 16°C
Humidity 82%
Pressure 1013 hPa
Visibility 10 km or more
no clouds below 1500 m and no cumulonimbus

METAR: EPWA 290330Z 11006KT CAVOK 16/13 Q1013 NOSIG

Time: 05:46 (03:46 UTC)

Forecast

The report was made 4 hours and 16 minutes ago, at 23:30 UTC
Forecast valid from 29 at 00 UTC to 29 at 24 UTC
Wind 8 kt from the East
Visibility 10 km or more
no clouds below 1500 m and no cumulonimbus
Probability 40% :
Temporary
from 29 at 12 UTC to 29 at 19 UTC
Scattered clouds at a height of 4500 ft, Cumulonimbus.

TAF: EPWA 282330Z 2900/2924 10008KT CAVOK PROB40 TEMPO 2912/2919 SCT045CB

METAR-TAF

Weather observations and forecasts of more than 4000 airports (METAR and TAF reports).

The available stations are represented by yellow and red dots on the map.

Hover mouse over dot to see the name of the station.

Then click to see weather observations and forecasts.

To change the map : click on the green buttons with a black cross to zoom in, on the green button with a dash to zoom out, or on the green arrows for adjacent maps.


METAR-TAF: